createdAt,value
2022-09-03T00:00:39.800Z,100032.53
2022-09-03T00:03:12.885Z,100033.47
2022-09-03T00:05:41.770Z,100028.91
2022-09-03T00:08:20.942Z,100032.31
2022-09-03T00:11:07.102Z,100028.44
2022-09-03T00:13:39.819Z,100038.22
2022-09-03T00:16:10.458Z,100032.97
2022-09-03T00:18:42.967Z,100036.41
2022-09-03T00:21:15.991Z,100029.13
2022-09-03T00:23:44.967Z,100037.06
2022-09-03T00:26:14.998Z,100030.72
2022-09-03T00:28:43.366Z,100030.41
2022-09-03T00:31:16.087Z,100029.13
2022-09-03T00:33:44.944Z,100034.25
2022-09-03T00:36:44.285Z,100036.53
2022-09-03T00:39:13.151Z,100029.34
2022-09-03T00:41:48.804Z,100033.91
2022-09-03T00:44:15.958Z,100032.22
2022-09-03T00:47:06.004Z,100030.81
2022-09-03T00:49:33.308Z,100038.34
2022-09-03T00:52:03.152Z,100034.59
2022-09-03T00:54:50.582Z,100027.75
2022-09-03T00:57:29.769Z,100026.16
2022-09-03T00:59:59.323Z,100030.81
2022-09-03T01:02:29.365Z,100037.53
2022-09-03T01:05:02.136Z,100029.34
2022-09-03T01:07:35.659Z,100038.41
2022-09-03T01:10:21.224Z,100030.03
2022-09-03T01:12:48.969Z,100039.19
2022-09-03T01:15:20.453Z,100038.41
2022-09-03T01:18:07.323Z,100050.44
2022-09-03T01:20:50.632Z,100042.50
2022-09-03T01:23:37.107Z,100036.13
2022-09-03T01:26:23.012Z,100046.22
2022-09-03T01:28:52.810Z,100046.47
2022-09-03T01:31:35.457Z,100046.53
2022-09-03T01:34:02.427Z,100043.03
2022-09-03T01:36:38.165Z,100045.63
2022-09-03T01:39:06.521Z,100051.88
2022-09-03T01:42:07.793Z,100047.31
2022-09-03T01:44:53.490Z,100048.53
2022-09-03T01:47:20.605Z,100049.56
2022-09-03T01:49:53.197Z,100043.78
2022-09-03T01:52:26.357Z,100043.00
2022-09-03T01:54:56.301Z,100043.78
2022-09-03T01:57:42.037Z,100035.81
2022-09-03T02:00:13.945Z,100039.44
2022-09-03T02:02:43.593Z,100043.06
2022-09-03T02:05:10.601Z,100041.03
2022-09-03T02:07:48.269Z,100043.41
2022-09-03T02:10:16.904Z,100034.59
2022-09-03T02:12:49.416Z,100045.81
2022-09-03T02:15:18.373Z,100042.59
2022-09-03T02:17:47.559Z,100044.88
2022-09-03T02:20:20.081Z,100039.88
2022-09-03T02:22:48.696Z,100045.09
2022-09-03T02:25:16.301Z,100047.56
2022-09-03T02:27:44.306Z,100041.22
2022-09-03T02:30:12.066Z,100055.72
2022-09-03T02:32:39.004Z,100047.50
2022-09-03T02:35:06.033Z,100044.19
2022-09-03T02:37:33.172Z,100046.38
2022-09-03T02:40:00.355Z,100046.81
2022-09-03T02:42:27.637Z,100046.81
2022-09-03T02:45:05.857Z,100042.47
2022-09-03T02:47:33.334Z,100042.34
2022-09-03T02:50:00.557Z,100045.59
2022-09-03T02:52:27.379Z,100044.00
2022-09-03T02:54:54.196Z,100039.56
2022-09-03T02:57:27.656Z,100036.38
2022-09-03T02:59:55.025Z,100042.25
2022-09-03T03:02:22.218Z,100041.69
2022-09-03T03:04:49.298Z,100046.09
2022-09-03T03:07:16.128Z,100048.94
2022-09-03T03:09:44.137Z,100045.31
2022-09-03T03:12:11.094Z,100044.31
2022-09-03T03:14:38.042Z,100046.53
2022-09-03T03:17:05.525Z,100051.97
2022-09-03T03:19:32.674Z,100051.97
2022-09-03T03:21:59.667Z,100044.59
2022-09-03T03:24:26.833Z,100048.81
2022-09-03T03:26:58.378Z,100045.00
2022-09-03T03:29:25.502Z,100056.47
2022-09-03T03:31:52.620Z,100058.63
2022-09-03T03:34:20.736Z,100062.25
2022-09-03T03:36:47.547Z,100059.78
2022-09-03T03:39:15.715Z,100062.97
2022-09-03T03:41:42.541Z,100066.16
2022-09-03T03:44:09.363Z,100062.56
2022-09-03T03:46:40.141Z,100064.56
2022-09-03T03:49:07.546Z,100062.97
2022-09-03T03:51:35.179Z,100061.97
2022-09-03T03:54:05.244Z,100054.56
2022-09-03T03:56:33.083Z,100057.44
2022-09-03T03:59:00.239Z,100054.03
2022-09-03T04:01:28.397Z,100054.19
2022-09-03T04:03:56.589Z,100058.69
2022-09-03T04:06:24.113Z,100047.91
2022-09-03T04:08:51.529Z,100044.72
2022-09-03T04:11:19.525Z,100057.97
2022-09-03T04:13:46.923Z,100063.63
2022-09-03T04:16:18.228Z,100067.47
2022-09-03T04:18:45.412Z,100064.47
2022-09-03T04:21:13.767Z,100065.69
2022-09-03T04:23:42.124Z,100067.28
2022-09-03T04:26:10.249Z,100062.53
2022-09-03T04:28:37.885Z,100071.38
2022-09-03T04:31:09.117Z,100079.00
2022-09-03T04:33:38.149Z,100080.03
2022-09-03T04:36:12.816Z,100083.38
2022-09-03T04:38:41.115Z,100083.94
2022-09-03T04:41:09.767Z,100083.50
2022-09-03T04:43:36.949Z,100078.38
2022-09-03T04:46:05.153Z,100084.97
2022-09-03T04:48:33.211Z,100094.94
2022-09-03T04:51:08.033Z,100091.81
2022-09-03T04:53:36.538Z,100093.34
2022-09-03T04:56:04.225Z,100094.47
2022-09-03T04:58:31.489Z,100096.00
2022-09-03T05:00:58.900Z,100095.72
2022-09-03T05:03:25.823Z,100101.25
2022-09-03T05:05:55.659Z,100108.78
2022-09-03T05:08:24.570Z,100115.13
2022-09-03T05:10:57.805Z,100112.75
2022-09-03T05:13:24.930Z,100098.47
2022-09-03T05:15:52.015Z,100095.41
2022-09-03T05:18:18.913Z,100089.19
2022-09-03T05:20:46.088Z,100100.53
2022-09-03T05:23:13.559Z,100090.38
2022-09-03T05:27:34.872Z,100091.97
2022-09-03T05:30:03.125Z,100097.31
2022-09-03T05:32:31.379Z,100096.28
2022-09-03T05:34:58.203Z,100093.69
2022-09-03T05:37:25.559Z,100097.53
2022-09-03T05:39:52.550Z,100100.16
2022-09-03T05:42:19.583Z,100106.69
2022-09-03T05:44:48.623Z,100108.56
2022-09-03T05:47:16.778Z,100106.88
2022-09-03T05:49:43.596Z,100107.50
2022-09-03T05:52:10.724Z,100107.06
2022-09-03T05:54:37.685Z,100121.88
2022-09-03T05:57:05.714Z,100106.84
2022-09-03T05:59:35.041Z,100113.03
2022-09-03T06:02:02.068Z,100116.72
2022-09-03T06:04:29.022Z,100115.59
2022-09-03T06:06:58.398Z,100110.94
2022-09-03T06:09:25.300Z,100111.13
2022-09-03T06:11:53.971Z,100112.41
2022-09-03T06:14:21.683Z,100111.88
2022-09-03T06:16:50.484Z,100116.56
2022-09-03T06:19:17.665Z,100124.31
2022-09-03T06:21:47.740Z,100114.19
2022-09-03T06:24:15.695Z,100110.66
2022-09-03T06:26:43.303Z,100124.09
2022-09-03T06:29:11.296Z,100119.63
2022-09-03T06:31:38.196Z,100114.47
2022-09-03T06:34:08.205Z,100108.69
2022-09-03T06:36:37.266Z,100114.56
2022-09-03T06:39:04.196Z,100109.63
2022-09-03T06:41:33.936Z,100099.88
2022-09-03T06:44:03.487Z,100104.25
2022-09-03T06:46:32.093Z,100109.03
2022-09-03T06:48:58.966Z,100099.47
2022-09-03T06:51:27.334Z,100105.34
2022-09-03T06:53:55.243Z,100105.03
2022-09-03T06:56:26.483Z,100110.88
2022-09-03T06:58:57.437Z,100112.69
2022-09-03T07:01:26.035Z,100108.00
2022-09-03T07:03:57.215Z,100113.56
2022-09-03T07:06:28.868Z,100119.66
2022-09-03T07:08:57.954Z,100116.75
2022-09-03T07:11:26.969Z,100102.38
2022-09-03T07:13:54.477Z,100101.72
2022-09-03T07:16:22.962Z,100110.63
2022-09-03T07:18:50.139Z,100105.88
2022-09-03T07:21:26.039Z,100115.41
2022-09-03T07:23:54.073Z,100112.25
2022-09-03T07:26:22.302Z,100115.16
2022-09-03T07:28:49.735Z,100117.41
2022-09-03T07:31:19.762Z,100119.56
2022-09-03T07:33:47.276Z,100119.13
2022-09-03T07:36:15.606Z,100118.78
2022-09-03T07:38:45.093Z,100114.81
2022-09-03T07:41:12.658Z,100120.41
2022-09-03T07:43:48.990Z,100122.06
2022-09-03T07:46:23.292Z,100128.25
2022-09-03T07:48:51.045Z,100116.97
2022-09-03T07:51:18.716Z,100129.66
2022-09-03T07:53:48.843Z,100130.44
2022-09-03T07:56:15.985Z,100121.97
2022-09-03T07:58:43.074Z,100127.75
2022-09-03T08:01:11.496Z,100133.16
2022-09-03T08:03:42.397Z,100129.81
2022-09-03T08:06:09.697Z,100126.53
2022-09-03T08:08:37.334Z,100116.50
2022-09-03T08:11:11.107Z,100118.91
2022-09-03T08:13:41.749Z,100106.06
2022-09-03T08:16:09.689Z,100104.38
2022-09-03T08:18:40.151Z,100106.94
2022-09-03T08:21:07.963Z,100113.34
2022-09-03T08:23:39.051Z,100114.09
2022-09-03T08:26:07.161Z,100121.47
2022-09-03T08:28:34.820Z,100116.63
2022-09-03T08:31:11.580Z,100121.03
2022-09-03T08:33:39.295Z,100113.91
2022-09-03T08:36:08.285Z,100111.09
2022-09-03T08:38:36.408Z,100105.41
2022-09-03T08:41:04.841Z,100106.78
2022-09-03T08:43:35.645Z,100109.38
2022-09-03T08:46:04.626Z,100105.09
2022-09-03T08:48:32.468Z,100105.13
2022-09-03T08:51:00.150Z,100100.44
2022-09-03T08:53:30.111Z,100089.81
2022-09-03T08:56:04.202Z,100089.38
2022-09-03T08:58:33.195Z,100094.88
2022-09-03T09:01:03.520Z,100101.03
2022-09-03T09:03:33.675Z,100086.19
2022-09-03T09:06:08.123Z,100086.13
2022-09-03T09:08:58.406Z,100084.38
2022-09-03T09:11:25.587Z,100075.56
2022-09-03T09:14:02.904Z,100077.09
2022-09-03T09:16:33.053Z,100066.63
2022-09-03T09:19:09.955Z,100075.22
2022-09-03T09:21:37.674Z,100073.78
2022-09-03T09:24:08.858Z,100071.03
2022-09-03T09:26:36.144Z,100076.34
2022-09-03T09:29:06.176Z,100080.66
2022-09-03T09:31:37.841Z,100071.22
2022-09-03T09:34:07.086Z,100075.03
2022-09-03T09:36:42.919Z,100070.28
2022-09-03T09:39:10.652Z,100069.88
2022-09-03T09:41:37.543Z,100066.94
2022-09-03T09:44:05.797Z,100065.50
2022-09-03T09:46:36.849Z,100064.13
2022-09-03T09:49:08.892Z,100062.69
2022-09-03T09:51:36.464Z,100075.00
2022-09-03T09:54:04.802Z,100067.13
2022-09-03T09:56:31.929Z,100069.28
2022-09-03T09:59:08.999Z,100075.81
2022-09-03T10:01:37.972Z,100079.69
2022-09-03T10:04:24.550Z,100073.00
2022-09-03T10:06:55.499Z,100066.94
2022-09-03T10:09:29.910Z,100070.00
2022-09-03T10:11:58.947Z,100061.69
2022-09-03T10:14:43.003Z,100068.53
2022-09-03T10:17:22.173Z,100051.72
2022-09-03T10:20:28.225Z,100058.31
2022-09-03T10:22:57.537Z,100059.38
2022-09-03T10:25:35.896Z,100044.56
2022-09-03T10:28:03.415Z,100048.41
2022-09-03T10:30:40.155Z,100038.59
2022-09-03T10:33:27.242Z,100050.50
2022-09-03T10:36:02.242Z,100051.97
2022-09-03T10:38:31.175Z,100054.06
2022-09-03T10:40:58.674Z,100049.28
2022-09-03T10:43:45.926Z,100041.91
2022-09-03T10:46:23.338Z,100045.00
2022-09-03T10:48:54.079Z,100043.44
2022-09-03T10:51:26.938Z,100045.88
2022-09-03T10:54:12.570Z,100041.28
2022-09-03T10:56:59.539Z,100038.16
2022-09-03T10:59:34.667Z,100037.84
2022-09-03T11:02:11.393Z,100032.16
2022-09-03T11:04:41.066Z,100027.66
2022-09-03T11:07:10.332Z,100030.31
2022-09-03T11:09:51.000Z,100036.41
2022-09-03T11:12:25.474Z,100028.56
2022-09-03T11:15:00.796Z,100019.28
2022-09-03T11:17:48.203Z,100026.69
2022-09-03T11:20:22.711Z,100025.00
2022-09-03T11:22:51.787Z,100026.22
2022-09-03T11:25:20.189Z,100025.22
2022-09-03T11:28:13.280Z,100013.56
2022-09-03T11:30:49.972Z,100023.16
2022-09-03T11:33:20.037Z,100029.50
2022-09-03T11:35:47.764Z,100023.16
2022-09-03T11:38:14.743Z,100022.84
2022-09-03T11:40:57.036Z,100034.50
2022-09-03T11:43:24.200Z,100027.31
2022-09-03T11:46:03.477Z,100024.47
2022-09-03T11:48:30.838Z,100013.72
2022-09-03T11:50:57.667Z,100021.81
2022-09-03T11:53:28.430Z,100023.38
2022-09-03T11:56:15.776Z,100029.22
2022-09-03T11:58:43.889Z,100026.94
2022-09-03T12:01:16.269Z,100022.91
2022-09-03T12:03:53.567Z,100020.94
2022-09-03T12:06:21.000Z,100014.75
2022-09-03T12:09:08.240Z,100012.66
2022-09-03T12:11:44.568Z,100008.47
2022-09-03T12:14:13.910Z,100011.06
2022-09-03T12:16:49.338Z,100010.47
2022-09-03T12:19:26.008Z,100006.25
2022-09-03T12:21:54.093Z,100009.09
2022-09-03T12:24:23.453Z,100013.63
2022-09-03T12:26:50.300Z,100005.19
2022-09-03T12:29:28.208Z,100011.72
2022-09-03T12:32:06.205Z,100005.22
2022-09-03T12:34:33.383Z,100014.75
2022-09-03T12:37:00.229Z,100008.06
2022-09-03T12:42:19.761Z,99997.44
2022-09-03T12:44:46.612Z,99994.00
2022-09-03T12:50:07.356Z,99995.41
2022-09-03T12:52:36.548Z,99988.13
2022-09-03T12:55:27.707Z,99991.34
2022-09-03T12:57:57.908Z,99987.09
2022-09-03T13:00:30.437Z,99990.72
2022-09-03T13:03:00.707Z,99987.44
2022-09-03T13:05:31.142Z,99970.34
2022-09-03T13:08:00.646Z,99991.97
2022-09-03T13:10:32.287Z,99987.66
2022-09-03T13:13:00.891Z,99991.97
2022-09-03T13:15:28.739Z,99984.06
2022-09-03T13:18:24.978Z,99980.94
2022-09-03T13:21:13.948Z,99985.41
2022-09-03T13:23:52.973Z,99978.78
2022-09-03T13:26:30.552Z,99985.88
2022-09-03T13:29:16.214Z,99967.31
2022-09-03T13:32:18.642Z,99973.84
2022-09-03T13:34:57.163Z,99965.81
2022-09-03T13:37:41.833Z,99972.59
2022-09-03T13:40:23.420Z,99967.75
2022-09-03T13:43:02.752Z,99965.31
2022-09-03T13:45:52.656Z,99962.47
2022-09-03T13:48:47.542Z,99970.72
2022-09-03T13:51:17.337Z,99962.59
2022-09-03T13:53:56.863Z,99969.88
2022-09-03T13:56:35.764Z,99954.03
2022-09-03T13:59:08.804Z,99970.25
2022-09-03T14:01:47.152Z,99964.34
2022-09-03T14:04:23.160Z,99955.91
2022-09-03T14:06:55.547Z,99946.88
2022-09-03T14:09:42.077Z,99952.19
2022-09-03T14:12:18.675Z,99947.53
2022-09-03T14:14:52.245Z,99951.97
2022-09-03T14:17:54.635Z,99955.31
2022-09-03T14:20:34.057Z,99950.31
2022-09-03T14:23:00.854Z,99941.44
2022-09-03T14:25:28.670Z,99944.59
2022-09-03T14:27:56.237Z,99947.91
2022-09-03T14:30:31.418Z,99941.34
2022-09-03T14:32:58.531Z,99941.16
2022-09-03T14:35:44.222Z,99941.69
2022-09-03T14:38:17.137Z,99934.44
2022-09-03T14:40:45.589Z,99952.28
2022-09-03T14:43:18.370Z,99944.28
2022-09-03T14:45:45.471Z,99936.81
2022-09-03T14:48:15.154Z,99939.41
2022-09-03T14:50:51.614Z,99938.38
2022-09-03T14:53:31.235Z,99933.31
2022-09-03T14:56:04.507Z,99933.50
2022-09-03T14:58:31.345Z,99935.28
2022-09-03T15:01:02.658Z,99940.78
2022-09-03T15:03:44.036Z,99935.69
2022-09-03T15:06:20.400Z,99946.28
2022-09-03T15:09:15.425Z,99938.63
2022-09-03T15:11:51.315Z,99942.34
2022-09-03T15:14:22.520Z,99942.41
2022-09-03T15:17:04.941Z,99941.53
2022-09-03T15:19:54.780Z,99944.63
2022-09-03T15:22:22.013Z,99940.06
2022-09-03T15:25:15.346Z,99945.69
2022-09-03T15:27:57.723Z,99940.91
2022-09-03T15:30:25.823Z,99950.84
2022-09-03T15:32:56.072Z,99946.63
2022-09-03T15:35:41.724Z,99936.22
2022-09-03T15:38:35.307Z,99936.66
2022-09-03T15:41:04.702Z,99927.84
2022-09-03T15:43:33.837Z,99932.56
2022-09-03T15:46:13.829Z,99934.41
2022-09-03T15:48:41.762Z,99934.28
2022-09-03T15:51:10.128Z,99944.00
2022-09-03T15:53:39.696Z,99932.78
2022-09-03T15:56:23.142Z,99938.72
2022-09-03T15:59:12.654Z,99945.22
2022-09-03T16:01:58.704Z,99943.41
2022-09-03T16:04:25.870Z,99946.66
2022-09-03T16:06:54.446Z,99945.66
2022-09-03T16:09:28.238Z,99943.38
2022-09-03T16:11:59.391Z,99937.88
2022-09-03T16:14:31.563Z,99953.53
2022-09-03T16:16:58.651Z,99949.38
2022-09-03T16:19:30.910Z,99962.16
2022-09-03T16:22:05.721Z,99954.19
2022-09-03T16:24:48.925Z,99954.25
2022-09-03T16:27:20.391Z,99959.84
2022-09-03T16:30:02.353Z,99963.59
2022-09-03T16:32:36.750Z,99952.34
2022-09-03T16:35:23.229Z,99958.22
2022-09-03T16:37:53.234Z,99960.31
2022-09-03T16:40:29.337Z,99958.25
2022-09-03T16:42:59.667Z,99959.63
2022-09-03T16:45:48.006Z,99953.09
2022-09-03T16:48:18.441Z,99958.41
2022-09-03T16:50:53.218Z,99951.84
2022-09-03T16:53:29.426Z,99956.59
2022-09-03T16:56:09.086Z,99958.75
2022-09-03T16:58:49.295Z,99956.66
2022-09-03T17:01:35.080Z,99949.88
2022-09-03T17:04:02.272Z,99951.78
2022-09-03T17:06:51.975Z,99949.22
2022-09-03T17:09:27.976Z,99952.47
2022-09-03T17:12:12.624Z,99945.66
2022-09-03T17:15:00.443Z,99945.75
2022-09-03T17:17:36.332Z,99944.81
2022-09-03T17:20:20.170Z,99957.50
2022-09-03T17:23:04.719Z,99959.44
2022-09-03T17:25:53.657Z,99960.78
2022-09-03T17:28:44.903Z,99961.88
2022-09-03T17:31:22.432Z,99967.19
2022-09-03T17:34:07.952Z,99971.47
2022-09-03T17:36:40.402Z,99972.56
2022-09-03T17:39:22.501Z,99976.56
2022-09-03T17:41:55.938Z,99986.34
2022-09-03T17:44:35.075Z,99979.00
2022-09-03T17:47:06.205Z,99976.34
2022-09-03T17:49:41.632Z,99988.47
2022-09-03T17:52:29.718Z,99988.75
2022-09-03T17:55:01.438Z,99994.84
2022-09-03T17:57:40.027Z,99987.19
2022-09-03T18:00:13.117Z,99990.94
2022-09-03T18:02:51.190Z,99993.28
2022-09-03T18:05:32.857Z,99994.34
2022-09-03T18:08:07.022Z,99996.75
2022-09-03T18:10:50.310Z,99998.09
2022-09-03T18:13:23.672Z,99990.97
2022-09-03T18:16:07.565Z,100003.41
2022-09-03T18:18:37.873Z,100002.13
2022-09-03T18:21:31.324Z,100012.97
2022-09-03T18:24:18.085Z,100010.38
2022-09-03T18:27:11.858Z,100005.66
2022-09-03T18:30:03.995Z,99997.75
2022-09-03T18:32:49.787Z,100004.38
2022-09-03T18:35:35.724Z,100004.16
2022-09-03T18:38:22.500Z,100014.72
2022-09-03T18:41:31.508Z,100014.44
2022-09-03T18:44:23.176Z,100012.88
2022-09-03T18:48:02.073Z,100019.19
2022-09-03T18:50:43.906Z,100013.41
2022-09-03T18:53:36.075Z,100018.69
2022-09-03T18:56:37.581Z,100014.19
2022-09-03T18:59:26.551Z,100011.03
2022-09-03T19:02:12.151Z,100011.84
2022-09-03T19:05:24.965Z,100005.28
2022-09-03T19:08:14.333Z,100011.88
2022-09-03T19:11:20.376Z,100020.06
2022-09-03T19:14:06.021Z,100020.59
2022-09-03T19:17:10.229Z,100013.75
2022-09-03T19:20:01.577Z,100016.66
2022-09-03T19:22:53.332Z,100001.94
2022-09-03T19:25:39.702Z,100011.44
2022-09-03T19:28:38.534Z,100014.56
2022-09-03T19:31:43.164Z,100012.22
2022-09-03T19:34:35.569Z,100011.19
2022-09-03T19:37:39.248Z,100020.16
2022-09-03T19:40:25.895Z,100027.50
2022-09-03T19:43:17.690Z,100022.78
2022-09-03T19:46:16.699Z,100028.63
2022-09-03T19:49:21.082Z,100029.41
2022-09-03T19:52:25.860Z,100032.28
2022-09-03T19:55:12.978Z,100037.09
2022-09-03T19:58:00.261Z,100035.53
2022-09-03T20:00:45.953Z,100034.19
2022-09-03T20:03:33.133Z,100036.56
2022-09-03T20:06:22.328Z,100036.31
2022-09-03T20:09:08.643Z,100036.03
2022-09-03T20:11:36.696Z,100047.38
2022-09-03T20:14:16.025Z,100054.47
2022-09-03T20:16:45.632Z,100049.75
2022-09-03T20:19:20.668Z,100054.22
2022-09-03T20:21:58.018Z,100052.63
2022-09-03T20:24:34.010Z,100056.84
2022-09-03T20:27:10.691Z,100048.69
2022-09-03T20:29:56.337Z,100053.19
2022-09-03T20:32:35.697Z,100063.47
2022-09-03T20:35:26.380Z,100062.41
2022-09-03T20:38:13.574Z,100056.34
2022-09-03T20:40:52.832Z,100056.06
2022-09-03T20:43:35.781Z,100057.91
2022-09-03T20:46:38.549Z,100069.50
2022-09-03T20:49:20.231Z,100071.34
2022-09-03T20:51:55.503Z,100076.13
2022-09-03T20:54:43.840Z,100080.34
2022-09-03T20:57:14.547Z,100077.72
2022-09-03T20:59:59.462Z,100073.53
2022-09-03T21:02:38.652Z,100083.00
2022-09-03T21:05:08.079Z,100087.22
2022-09-03T21:07:41.227Z,100086.41
2022-09-03T21:10:15.087Z,100085.63
2022-09-03T21:12:57.538Z,100082.72
2022-09-03T21:15:44.751Z,100067.16
2022-09-03T21:18:41.512Z,100077.47
2022-09-03T21:21:27.268Z,100075.09
2022-09-03T21:24:09.059Z,100077.66
2022-09-03T21:26:42.486Z,100078.94
2022-09-03T21:29:22.533Z,100078.19
2022-09-03T21:32:01.498Z,100089.97
2022-09-03T21:34:37.080Z,100088.09
2022-09-03T21:37:04.701Z,100097.03
2022-09-03T21:39:40.185Z,100089.34
2022-09-03T21:42:13.748Z,100093.78
2022-09-03T21:44:41.061Z,100091.69
2022-09-03T21:47:12.799Z,100100.56
2022-09-03T21:49:42.432Z,100093.41
2022-09-03T21:52:13.179Z,100098.91
2022-09-03T21:54:40.011Z,100093.09
2022-09-03T21:57:17.636Z,100095.19
2022-09-03T22:00:04.735Z,100109.38
2022-09-03T22:02:54.988Z,100096.16
2022-09-03T22:05:22.609Z,100108.81
2022-09-03T22:08:02.269Z,100108.28
2022-09-03T22:10:48.269Z,100110.91
2022-09-03T22:13:33.943Z,100113.59
2022-09-03T22:16:18.205Z,100110.94
2022-09-03T22:18:47.279Z,100111.50
2022-09-03T22:21:20.070Z,100115.19
2022-09-03T22:24:09.462Z,100114.66
2022-09-03T22:27:07.740Z,100114.41
2022-09-03T22:29:38.997Z,100114.09
2022-09-03T22:32:11.770Z,100110.44
2022-09-03T22:34:58.186Z,100116.25
2022-09-03T22:37:38.080Z,100115.19
2022-09-03T22:40:16.816Z,100121.97
2022-09-03T22:43:01.087Z,100126.72
2022-09-03T22:45:40.490Z,100124.09
2022-09-03T22:48:07.626Z,100125.63
2022-09-03T22:50:57.845Z,100127.66
2022-09-03T22:53:28.203Z,100125.00
2022-09-03T22:56:02.495Z,100123.34
2022-09-03T22:58:33.475Z,100127.00
2022-09-03T23:01:13.561Z,100126.50
2022-09-03T23:04:03.418Z,100137.97
2022-09-03T23:06:32.615Z,100137.47
2022-09-03T23:09:20.031Z,100135.91
2022-09-03T23:11:52.829Z,100127.53
2022-09-03T23:14:22.676Z,100134.38
2022-09-03T23:16:54.659Z,100137.47
2022-09-03T23:19:53.607Z,100145.63
2022-09-03T23:22:25.813Z,100140.59
2022-09-03T23:24:54.232Z,100146.91
2022-09-03T23:27:25.467Z,100151.19
2022-09-03T23:29:56.555Z,100151.38
2022-09-03T23:32:25.536Z,100153.75
2022-09-03T23:34:57.205Z,100154.84
2022-09-03T23:37:35.441Z,100149.03
2022-09-03T23:40:05.375Z,100147.97
2022-09-03T23:42:38.954Z,100149.09
2022-09-03T23:45:05.859Z,100152.44
2022-09-03T23:47:45.626Z,100153.03
2022-09-03T23:50:21.051Z,100150.31
2022-09-03T23:52:56.103Z,100151.38
2022-09-03T23:55:32.059Z,100149.81
2022-09-03T23:58:08.367Z,100147.09
